sensor_id;sensor_type;location;lat;lon;timestamp;P1;durP1;ratioP1;P2;durP2;ratioP2
25023;SDS011;13033;50.936;5.334;2022-11-12T00:00:16;27.05;;;17.77;;
25023;SDS011;13033;50.936;5.334;2022-11-12T00:02:42;26.30;;;18.20;;
25023;SDS011;13033;50.936;5.334;2022-11-12T00:05:08;28.92;;;18.83;;
25023;SDS011;13033;50.936;5.334;2022-11-12T00:07:34;26.73;;;18.30;;
25023;SDS011;13033;50.936;5.334;2022-11-12T00:09:59;32.47;;;18.55;;
25023;SDS011;13033;50.936;5.334;2022-11-12T00:12:25;29.48;;;19.10;;
25023;SDS011;13033;50.936;5.334;2022-11-12T00:14:51;26.10;;;17.30;;
25023;SDS011;13033;50.936;5.334;2022-11-12T00:17:16;25.13;;;16.98;;
25023;SDS011;13033;50.936;5.334;2022-11-12T00:19:42;29.48;;;20.00;;
25023;SDS011;13033;50.936;5.334;2022-11-12T00:22:07;35.33;;;21.63;;
25023;SDS011;13033;50.936;5.334;2022-11-12T00:24:33;42.03;;;27.17;;
25023;SDS011;13033;50.936;5.334;2022-11-12T00:26:59;41.55;;;24.77;;
25023;SDS011;13033;50.936;5.334;2022-11-12T00:29:24;36.30;;;23.23;;
25023;SDS011;13033;50.936;5.334;2022-11-12T00:31:50;30.10;;;19.25;;
25023;SDS011;13033;50.936;5.334;2022-11-12T00:34:16;35.45;;;22.83;;
25023;SDS011;13033;50.936;5.334;2022-11-12T00:36:41;32.13;;;21.27;;
25023;SDS011;13033;50.936;5.334;2022-11-12T00:39:07;30.80;;;20.60;;
25023;SDS011;13033;50.936;5.334;2022-11-12T00:41:33;30.55;;;20.77;;
25023;SDS011;13033;50.936;5.334;2022-11-12T00:43:58;31.48;;;20.13;;
25023;SDS011;13033;50.936;5.334;2022-11-12T00:46:24;28.42;;;18.00;;
25023;SDS011;13033;50.936;5.334;2022-11-12T00:48:49;27.30;;;18.55;;
25023;SDS011;13033;50.936;5.334;2022-11-12T00:51:15;29.52;;;18.88;;
25023;SDS011;13033;50.936;5.334;2022-11-12T00:53:41;25.73;;;17.58;;
25023;SDS011;13033;50.936;5.334;2022-11-12T00:56:06;38.35;;;25.55;;
25023;SDS011;13033;50.936;5.334;2022-11-12T00:58:33;36.58;;;25.95;;
25023;SDS011;13033;50.936;5.334;2022-11-12T01:01:04;35.38;;;23.80;;
25023;SDS011;13033;50.936;5.334;2022-11-12T01:03:37;35.20;;;23.48;;
25023;SDS011;13033;50.936;5.334;2022-11-12T01:06:08;34.42;;;23.52;;
25023;SDS011;13033;50.936;5.334;2022-11-12T01:08:40;27.52;;;18.23;;
25023;SDS011;13033;50.936;5.334;2022-11-12T01:11:10;24.52;;;17.25;;
25023;SDS011;13033;50.936;5.334;2022-11-12T01:13:41;25.48;;;17.63;;
25023;SDS011;13033;50.936;5.334;2022-11-12T01:16:08;27.20;;;17.73;;
25023;SDS011;13033;50.936;5.334;2022-11-12T01:18:36;32.25;;;18.67;;
25023;SDS011;13033;50.936;5.334;2022-11-12T01:21:03;26.20;;;17.65;;
25023;SDS011;13033;50.936;5.334;2022-11-12T01:23:33;28.98;;;17.85;;
25023;SDS011;13033;50.936;5.334;2022-11-12T01:26:08;22.33;;;15.50;;
25023;SDS011;13033;50.936;5.334;2022-11-12T01:28:38;23.58;;;15.25;;
25023;SDS011;13033;50.936;5.334;2022-11-12T01:31:15;23.02;;;15.65;;
25023;SDS011;13033;50.936;5.334;2022-11-12T01:33:41;22.42;;;15.57;;
25023;SDS011;13033;50.936;5.334;2022-11-12T01:36:08;24.15;;;15.80;;
25023;SDS011;13033;50.936;5.334;2022-11-12T01:38:35;20.45;;;15.57;;
25023;SDS011;13033;50.936;5.334;2022-11-12T01:41:02;23.92;;;15.23;;
25023;SDS011;13033;50.936;5.334;2022-11-12T01:43:31;21.52;;;14.02;;
25023;SDS011;13033;50.936;5.334;2022-11-12T01:45:57;25.52;;;15.48;;
25023;SDS011;13033;50.936;5.334;2022-11-12T01:48:26;21.40;;;14.38;;
25023;SDS011;13033;50.936;5.334;2022-11-12T01:50:56;20.17;;;13.43;;
25023;SDS011;13033;50.936;5.334;2022-11-12T01:53:22;20.10;;;12.98;;
25023;SDS011;13033;50.936;5.334;2022-11-12T01:55:52;19.20;;;12.70;;
25023;SDS011;13033;50.936;5.334;2022-11-12T01:58:21;20.58;;;12.80;;
25023;SDS011;13033;50.936;5.334;2022-11-12T02:00:49;18.85;;;12.70;;
25023;SDS011;13033;50.936;5.334;2022-11-12T02:03:19;17.38;;;11.77;;
25023;SDS011;13033;50.936;5.334;2022-11-12T02:05:48;18.27;;;12.02;;
25023;SDS011;13033;50.936;5.334;2022-11-12T02:08:16;17.80;;;12.00;;
25023;SDS011;13033;50.936;5.334;2022-11-12T02:10:43;19.25;;;11.90;;
25023;SDS011;13033;50.936;5.334;2022-11-12T02:13:09;17.00;;;12.02;;
25023;SDS011;13033;50.936;5.334;2022-11-12T02:15:53;17.20;;;12.20;;
25023;SDS011;13033;50.936;5.334;2022-11-12T02:18:20;17.98;;;11.43;;
25023;SDS011;13033;50.936;5.334;2022-11-12T02:20:52;18.65;;;11.73;;
25023;SDS011;13033;50.936;5.334;2022-11-12T02:23:19;18.85;;;12.55;;
25023;SDS011;13033;50.936;5.334;2022-11-12T02:25:45;16.35;;;11.32;;
25023;SDS011;13033;50.936;5.334;2022-11-12T02:28:11;17.05;;;11.52;;
25023;SDS011;13033;50.936;5.334;2022-11-12T02:30:44;15.10;;;11.10;;
25023;SDS011;13033;50.936;5.334;2022-11-12T02:33:11;17.15;;;10.88;;
25023;SDS011;13033;50.936;5.334;2022-11-12T02:35:37;15.50;;;10.35;;
25023;SDS011;13033;50.936;5.334;2022-11-12T02:38:04;15.80;;;11.02;;
25023;SDS011;13033;50.936;5.334;2022-11-12T02:40:30;14.00;;;9.90;;
25023;SDS011;13033;50.936;5.334;2022-11-12T02:42:56;14.45;;;9.80;;
25023;SDS011;13033;50.936;5.334;2022-11-12T02:45:22;13.13;;;9.10;;
25023;SDS011;13033;50.936;5.334;2022-11-12T02:47:48;12.32;;;8.75;;
25023;SDS011;13033;50.936;5.334;2022-11-12T02:50:14;15.52;;;8.88;;
25023;SDS011;13033;50.936;5.334;2022-11-12T02:52:40;14.60;;;9.18;;
25023;SDS011;13033;50.936;5.334;2022-11-12T02:55:07;13.27;;;8.68;;
25023;SDS011;13033;50.936;5.334;2022-11-12T02:57:35;15.05;;;8.90;;
25023;SDS011;13033;50.936;5.334;2022-11-12T03:00:05;12.35;;;8.43;;
25023;SDS011;13033;50.936;5.334;2022-11-12T03:02:34;13.32;;;9.15;;
25023;SDS011;13033;50.936;5.334;2022-11-12T03:05:07;15.27;;;9.25;;
25023;SDS011;13033;50.936;5.334;2022-11-12T03:07:34;14.98;;;9.48;;
25023;SDS011;13033;50.936;5.334;2022-11-12T03:09:59;15.77;;;9.80;;
25023;SDS011;13033;50.936;5.334;2022-11-12T03:12:25;15.57;;;9.07;;
25023;SDS011;13033;50.936;5.334;2022-11-12T03:14:51;12.40;;;9.10;;
25023;SDS011;13033;50.936;5.334;2022-11-12T03:17:16;11.05;;;7.97;;
25023;SDS011;13033;50.936;5.334;2022-11-12T03:19:42;13.85;;;8.50;;
25023;SDS011;13033;50.936;5.334;2022-11-12T03:22:07;12.32;;;8.00;;
25023;SDS011;13033;50.936;5.334;2022-11-12T03:24:33;11.77;;;8.63;;
25023;SDS011;13033;50.936;5.334;2022-11-12T03:26:59;12.52;;;9.07;;
25023;SDS011;13033;50.936;5.334;2022-11-12T03:29:24;13.35;;;8.18;;
25023;SDS011;13033;50.936;5.334;2022-11-12T03:31:50;14.88;;;8.75;;
25023;SDS011;13033;50.936;5.334;2022-11-12T03:34:16;13.23;;;8.80;;
25023;SDS011;13033;50.936;5.334;2022-11-12T03:36:42;14.02;;;8.90;;
25023;SDS011;13033;50.936;5.334;2022-11-12T03:39:07;12.77;;;8.98;;
25023;SDS011;13033;50.936;5.334;2022-11-12T03:41:33;13.50;;;8.73;;
25023;SDS011;13033;50.936;5.334;2022-11-12T03:43:59;15.43;;;9.68;;
25023;SDS011;13033;50.936;5.334;2022-11-12T03:46:25;12.38;;;9.25;;
25023;SDS011;13033;50.936;5.334;2022-11-12T03:48:50;15.30;;;9.60;;
25023;SDS011;13033;50.936;5.334;2022-11-12T03:51:18;14.40;;;9.75;;
25023;SDS011;13033;50.936;5.334;2022-11-12T03:53:45;14.07;;;9.30;;
25023;SDS011;13033;50.936;5.334;2022-11-12T03:56:11;12.20;;;8.30;;
25023;SDS011;13033;50.936;5.334;2022-11-12T03:58:36;13.70;;;9.80;;
25023;SDS011;13033;50.936;5.334;2022-11-12T04:01:02;12.68;;;8.32;;
25023;SDS011;13033;50.936;5.334;2022-11-12T04:03:28;12.88;;;8.90;;
25023;SDS011;13033;50.936;5.334;2022-11-12T04:05:53;12.60;;;8.70;;
25023;SDS011;13033;50.936;5.334;2022-11-12T04:08:37;10.75;;;8.73;;
25023;SDS011;13033;50.936;5.334;2022-11-12T04:11:10;11.75;;;8.60;;
25023;SDS011;13033;50.936;5.334;2022-11-12T04:13:37;13.35;;;8.40;;
25023;SDS011;13033;50.936;5.334;2022-11-12T04:16:05;18.52;;;9.80;;
25023;SDS011;13033;50.936;5.334;2022-11-12T04:18:53;21.73;;;11.30;;
25023;SDS011;13033;50.936;5.334;2022-11-12T04:21:41;18.23;;;9.57;;
25023;SDS011;13033;50.936;5.334;2022-11-12T04:27:05;13.55;;;8.77;;
25023;SDS011;13033;50.936;5.334;2022-11-12T04:29:32;13.13;;;8.30;;
25023;SDS011;13033;50.936;5.334;2022-11-12T04:32:17;12.10;;;8.48;;
25023;SDS011;13033;50.936;5.334;2022-11-12T04:34:43;15.27;;;8.10;;
25023;SDS011;13033;50.936;5.334;2022-11-12T04:37:08;12.38;;;8.00;;
25023;SDS011;13033;50.936;5.334;2022-11-12T04:39:34;11.57;;;8.27;;
25023;SDS011;13033;50.936;5.334;2022-11-12T04:42:00;14.75;;;8.23;;
25023;SDS011;13033;50.936;5.334;2022-11-12T04:44:44;13.25;;;8.57;;
25023;SDS011;13033;50.936;5.334;2022-11-12T04:47:27;14.05;;;7.97;;
25023;SDS011;13033;50.936;5.334;2022-11-12T04:49:53;11.73;;;7.93;;
25023;SDS011;13033;50.936;5.334;2022-11-12T04:52:19;13.63;;;8.90;;
25023;SDS011;13033;50.936;5.334;2022-11-12T04:54:45;13.40;;;8.35;;
25023;SDS011;13033;50.936;5.334;2022-11-12T04:57:11;12.30;;;8.43;;
25023;SDS011;13033;50.936;5.334;2022-11-12T04:59:36;14.00;;;9.15;;
25023;SDS011;13033;50.936;5.334;2022-11-12T05:02:02;13.85;;;9.27;;
25023;SDS011;13033;50.936;5.334;2022-11-12T05:04:27;14.75;;;9.05;;
25023;SDS011;13033;50.936;5.334;2022-11-12T05:06:56;18.02;;;10.00;;
25023;SDS011;13033;50.936;5.334;2022-11-12T05:09:24;16.70;;;9.38;;
25023;SDS011;13033;50.936;5.334;2022-11-12T05:11:51;19.23;;;9.77;;
25023;SDS011;13033;50.936;5.334;2022-11-12T05:14:19;13.05;;;9.43;;
25023;SDS011;13033;50.936;5.334;2022-11-12T05:16:45;13.73;;;9.20;;
25023;SDS011;13033;50.936;5.334;2022-11-12T05:19:11;16.80;;;8.98;;
25023;SDS011;13033;50.936;5.334;2022-11-12T05:21:37;17.42;;;8.88;;
25023;SDS011;13033;50.936;5.334;2022-11-12T05:24:21;13.70;;;8.48;;
25023;SDS011;13033;50.936;5.334;2022-11-12T05:26:47;14.40;;;8.38;;
25023;SDS011;13033;50.936;5.334;2022-11-12T05:29:12;13.80;;;8.57;;
25023;SDS011;13033;50.936;5.334;2022-11-12T05:31:38;16.48;;;8.57;;
25023;SDS011;13033;50.936;5.334;2022-11-12T05:34:04;15.25;;;8.98;;
25023;SDS011;13033;50.936;5.334;2022-11-12T05:36:30;17.17;;;8.95;;
25023;SDS011;13033;50.936;5.334;2022-11-12T05:38:55;16.38;;;9.35;;
25023;SDS011;13033;50.936;5.334;2022-11-12T05:41:21;14.43;;;9.30;;
25023;SDS011;13033;50.936;5.334;2022-11-12T05:43:47;15.95;;;8.88;;
25023;SDS011;13033;50.936;5.334;2022-11-12T05:46:12;15.75;;;9.02;;
25023;SDS011;13033;50.936;5.334;2022-11-12T05:48:38;16.23;;;9.43;;
25023;SDS011;13033;50.936;5.334;2022-11-12T05:51:04;13.52;;;8.35;;
25023;SDS011;13033;50.936;5.334;2022-11-12T05:53:29;15.95;;;8.23;;
25023;SDS011;13033;50.936;5.334;2022-11-12T05:56:02;18.50;;;8.52;;
25023;SDS011;13033;50.936;5.334;2022-11-12T05:58:28;14.25;;;8.75;;
25023;SDS011;13033;50.936;5.334;2022-11-12T06:00:55;16.00;;;9.05;;
25023;SDS011;13033;50.936;5.334;2022-11-12T06:03:21;16.80;;;8.77;;
25023;SDS011;13033;50.936;5.334;2022-11-12T06:05:47;18.50;;;8.73;;
25023;SDS011;13033;50.936;5.334;2022-11-12T06:08:12;16.65;;;8.20;;
25023;SDS011;13033;50.936;5.334;2022-11-12T06:10:38;13.75;;;8.50;;
25023;SDS011;13033;50.936;5.334;2022-11-12T06:13:04;15.85;;;8.68;;
25023;SDS011;13033;50.936;5.334;2022-11-12T06:15:30;18.38;;;8.20;;
25023;SDS011;13033;50.936;5.334;2022-11-12T06:17:55;14.95;;;8.52;;
25023;SDS011;13033;50.936;5.334;2022-11-12T06:20:21;14.57;;;8.13;;
25023;SDS011;13033;50.936;5.334;2022-11-12T06:22:48;14.23;;;9.05;;
25023;SDS011;13033;50.936;5.334;2022-11-12T06:25:14;15.35;;;8.75;;
25023;SDS011;13033;50.936;5.334;2022-11-12T06:27:40;19.90;;;8.88;;
25023;SDS011;13033;50.936;5.334;2022-11-12T06:30:06;17.30;;;8.38;;
25023;SDS011;13033;50.936;5.334;2022-11-12T06:32:32;14.82;;;8.43;;
25023;SDS011;13033;50.936;5.334;2022-11-12T06:34:58;13.52;;;8.25;;
25023;SDS011;13033;50.936;5.334;2022-11-12T06:37:24;18.50;;;8.02;;
25023;SDS011;13033;50.936;5.334;2022-11-12T06:39:50;18.02;;;8.55;;
25023;SDS011;13033;50.936;5.334;2022-11-12T06:42:15;17.80;;;8.40;;
25023;SDS011;13033;50.936;5.334;2022-11-12T06:44:41;13.23;;;8.18;;
25023;SDS011;13033;50.936;5.334;2022-11-12T06:47:08;14.38;;;8.02;;
25023;SDS011;13033;50.936;5.334;2022-11-12T06:49:34;13.75;;;7.65;;
25023;SDS011;13033;50.936;5.334;2022-11-12T06:52:00;16.40;;;8.65;;
25023;SDS011;13033;50.936;5.334;2022-11-12T06:54:25;15.75;;;8.45;;
25023;SDS011;13033;50.936;5.334;2022-11-12T06:56:51;17.90;;;7.65;;
25023;SDS011;13033;50.936;5.334;2022-11-12T06:59:17;16.00;;;8.13;;
25023;SDS011;13033;50.936;5.334;2022-11-12T07:01:42;15.70;;;8.10;;
25023;SDS011;13033;50.936;5.334;2022-11-12T07:04:08;11.40;;;7.30;;
25023;SDS011;13033;50.936;5.334;2022-11-12T07:06:34;15.90;;;8.02;;
25023;SDS011;13033;50.936;5.334;2022-11-12T07:09:00;13.55;;;8.23;;
25023;SDS011;13033;50.936;5.334;2022-11-12T07:11:27;14.00;;;7.70;;
25023;SDS011;13033;50.936;5.334;2022-11-12T07:13:52;12.50;;;8.02;;
25023;SDS011;13033;50.936;5.334;2022-11-12T07:16:18;11.68;;;8.18;;
25023;SDS011;13033;50.936;5.334;2022-11-12T07:18:44;14.15;;;7.72;;
25023;SDS011;13033;50.936;5.334;2022-11-12T07:21:11;15.77;;;9.30;;
25023;SDS011;13033;50.936;5.334;2022-11-12T07:23:38;13.90;;;8.25;;
25023;SDS011;13033;50.936;5.334;2022-11-12T07:26:05;17.45;;;8.38;;
25023;SDS011;13033;50.936;5.334;2022-11-12T07:31:06;16.58;;;8.93;;
25023;SDS011;13033;50.936;5.334;2022-11-12T07:33:34;23.23;;;8.60;;
25023;SDS011;13033;50.936;5.334;2022-11-12T07:38:28;13.50;;;8.38;;
25023;SDS011;13033;50.936;5.334;2022-11-12T07:40:58;15.10;;;9.13;;
25023;SDS011;13033;50.936;5.334;2022-11-12T07:43:26;18.88;;;8.32;;
25023;SDS011;13033;50.936;5.334;2022-11-12T07:45:56;15.15;;;9.07;;
25023;SDS011;13033;50.936;5.334;2022-11-12T07:48:25;21.10;;;8.27;;
25023;SDS011;13033;50.936;5.334;2022-11-12T07:50:57;13.18;;;8.60;;
25023;SDS011;13033;50.936;5.334;2022-11-12T07:53:27;14.38;;;8.13;;
25023;SDS011;13033;50.936;5.334;2022-11-12T07:55:54;16.30;;;8.63;;
25023;SDS011;13033;50.936;5.334;2022-11-12T07:58:22;15.43;;;9.20;;
25023;SDS011;13033;50.936;5.334;2022-11-12T08:00:48;16.13;;;9.07;;
25023;SDS011;13033;50.936;5.334;2022-11-12T08:03:14;18.13;;;9.18;;
25023;SDS011;13033;50.936;5.334;2022-11-12T08:05:40;15.23;;;9.00;;
25023;SDS011;13033;50.936;5.334;2022-11-12T08:08:06;17.33;;;8.98;;
25023;SDS011;13033;50.936;5.334;2022-11-12T08:10:31;12.90;;;8.52;;
25023;SDS011;13033;50.936;5.334;2022-11-12T08:12:57;18.45;;;8.52;;
25023;SDS011;13033;50.936;5.334;2022-11-12T08:15:22;18.40;;;9.30;;
25023;SDS011;13033;50.936;5.334;2022-11-12T08:17:48;14.35;;;8.35;;
25023;SDS011;13033;50.936;5.334;2022-11-12T08:20:14;13.13;;;8.57;;
25023;SDS011;13033;50.936;5.334;2022-11-12T08:22:40;17.33;;;8.77;;
25023;SDS011;13033;50.936;5.334;2022-11-12T08:25:06;20.98;;;9.10;;
25023;SDS011;13033;50.936;5.334;2022-11-12T08:27:32;18.17;;;9.18;;
25023;SDS011;13033;50.936;5.334;2022-11-12T08:29:58;13.70;;;8.70;;
25023;SDS011;13033;50.936;5.334;2022-11-12T08:32:24;17.77;;;9.15;;
25023;SDS011;13033;50.936;5.334;2022-11-12T08:34:49;15.40;;;8.60;;
25023;SDS011;13033;50.936;5.334;2022-11-12T08:37:15;14.95;;;8.80;;
25023;SDS011;13033;50.936;5.334;2022-11-12T08:39:41;14.40;;;9.10;;
25023;SDS011;13033;50.936;5.334;2022-11-12T08:42:06;17.55;;;8.38;;
25023;SDS011;13033;50.936;5.334;2022-11-12T08:44:32;16.23;;;8.73;;
25023;SDS011;13033;50.936;5.334;2022-11-12T08:46:58;16.42;;;10.05;;
25023;SDS011;13033;50.936;5.334;2022-11-12T08:49:23;18.60;;;9.32;;
25023;SDS011;13033;50.936;5.334;2022-11-12T08:51:49;18.73;;;9.63;;
25023;SDS011;13033;50.936;5.334;2022-11-12T08:54:15;19.73;;;9.18;;
25023;SDS011;13033;50.936;5.334;2022-11-12T08:56:41;17.45;;;9.50;;
25023;SDS011;13033;50.936;5.334;2022-11-12T08:59:06;21.02;;;8.98;;
25023;SDS011;13033;50.936;5.334;2022-11-12T09:01:32;17.30;;;9.10;;
25023;SDS011;13033;50.936;5.334;2022-11-12T09:03:58;16.98;;;9.65;;
25023;SDS011;13033;50.936;5.334;2022-11-12T09:06:23;15.80;;;9.20;;
25023;SDS011;13033;50.936;5.334;2022-11-12T09:08:49;13.35;;;8.60;;
25023;SDS011;13033;50.936;5.334;2022-11-12T09:11:15;10.68;;;8.20;;
25023;SDS011;13033;50.936;5.334;2022-11-12T09:13:41;14.63;;;8.55;;
25023;SDS011;13033;50.936;5.334;2022-11-12T09:16:08;16.95;;;8.48;;
25023;SDS011;13033;50.936;5.334;2022-11-12T09:18:34;15.13;;;8.45;;
25023;SDS011;13033;50.936;5.334;2022-11-12T09:21:07;12.43;;;8.18;;
25023;SDS011;13033;50.936;5.334;2022-11-12T09:23:35;18.10;;;8.30;;
25023;SDS011;13033;50.936;5.334;2022-11-12T09:26:02;12.45;;;8.00;;
25023;SDS011;13033;50.936;5.334;2022-11-12T09:28:28;14.57;;;8.48;;
25023;SDS011;13033;50.936;5.334;2022-11-12T09:30:54;13.55;;;8.02;;
25023;SDS011;13033;50.936;5.334;2022-11-12T09:33:21;13.82;;;7.93;;
25023;SDS011;13033;50.936;5.334;2022-11-12T09:35:52;13.88;;;7.72;;
25023;SDS011;13033;50.936;5.334;2022-11-12T09:38:18;12.73;;;7.18;;
25023;SDS011;13033;50.936;5.334;2022-11-12T09:45:51;14.10;;;7.32;;
25023;SDS011;13033;50.936;5.334;2022-11-12T09:48:21;12.95;;;8.02;;
25023;SDS011;13033;50.936;5.334;2022-11-12T09:50:56;11.97;;;7.60;;
25023;SDS011;13033;50.936;5.334;2022-11-12T09:53:26;11.65;;;7.80;;
25023;SDS011;13033;50.936;5.334;2022-11-12T09:56:01;13.75;;;7.75;;
25023;SDS011;13033;50.936;5.334;2022-11-12T09:58:31;10.68;;;7.55;;
25023;SDS011;13033;50.936;5.334;2022-11-12T10:00:59;13.30;;;8.38;;
25023;SDS011;13033;50.936;5.334;2022-11-12T10:06:21;11.77;;;7.30;;
25023;SDS011;13033;50.936;5.334;2022-11-12T10:11:46;11.57;;;8.70;;
25023;SDS011;13033;50.936;5.334;2022-11-12T10:17:59;10.02;;;7.38;;
25023;SDS011;13033;50.936;5.334;2022-11-12T10:20:41;11.68;;;7.45;;
25023;SDS011;13033;50.936;5.334;2022-11-12T10:23:15;10.13;;;6.50;;
25023;SDS011;13033;50.936;5.334;2022-11-12T10:28:17;11.15;;;7.35;;
25023;SDS011;13033;50.936;5.334;2022-11-12T10:31:16;10.10;;;7.40;;
25023;SDS011;13033;50.936;5.334;2022-11-12T10:33:44;10.80;;;7.43;;
25023;SDS011;13033;50.936;5.334;2022-11-12T10:38:44;13.02;;;7.22;;
25023;SDS011;13033;50.936;5.334;2022-11-12T10:41:29;10.82;;;6.45;;
25023;SDS011;13033;50.936;5.334;2022-11-12T10:44:01;7.53;;;6.50;;
25023;SDS011;13033;50.936;5.334;2022-11-12T10:46:29;7.47;;;5.88;;
25023;SDS011;13033;50.936;5.334;2022-11-12T10:49:00;8.80;;;6.10;;
25023;SDS011;13033;50.936;5.334;2022-11-12T10:51:33;9.23;;;6.55;;
25023;SDS011;13033;50.936;5.334;2022-11-12T10:54:45;9.35;;;6.20;;
25023;SDS011;13033;50.936;5.334;2022-11-12T10:56:52;10.20;;;6.40;;
25023;SDS011;13033;50.936;5.334;2022-11-12T10:59:19;8.93;;;6.47;;
25023;SDS011;13033;50.936;5.334;2022-11-12T11:01:53;8.90;;;5.95;;
25023;SDS011;13033;50.936;5.334;2022-11-12T11:07:05;10.98;;;6.22;;
25023;SDS011;13033;50.936;5.334;2022-11-12T11:09:50;10.27;;;5.85;;
25023;SDS011;13033;50.936;5.334;2022-11-12T11:12:31;17.08;;;6.75;;
25023;SDS011;13033;50.936;5.334;2022-11-12T11:17:42;14.38;;;6.57;;
25023;SDS011;13033;50.936;5.334;2022-11-12T11:22:49;11.45;;;6.55;;
25023;SDS011;13033;50.936;5.334;2022-11-12T11:25:26;27.15;;;6.55;;
25023;SDS011;13033;50.936;5.334;2022-11-12T11:30:51;8.23;;;5.40;;
25023;SDS011;13033;50.936;5.334;2022-11-12T11:38:46;15.77;;;5.82;;
25023;SDS011;13033;50.936;5.334;2022-11-12T11:51:58;8.63;;;5.28;;
25023;SDS011;13033;50.936;5.334;2022-11-12T12:00:35;8.45;;;4.93;;
25023;SDS011;13033;50.936;5.334;2022-11-12T12:03:21;7.38;;;5.03;;
25023;SDS011;13033;50.936;5.334;2022-11-12T12:09:12;7.80;;;4.88;;
25023;SDS011;13033;50.936;5.334;2022-11-12T12:22:24;6.70;;;4.43;;
25023;SDS011;13033;50.936;5.334;2022-11-12T12:25:02;5.00;;;4.20;;
25023;SDS011;13033;50.936;5.334;2022-11-12T12:27:59;6.35;;;4.65;;
25023;SDS011;13033;50.936;5.334;2022-11-12T12:30:33;8.07;;;5.40;;
25023;SDS011;13033;50.936;5.334;2022-11-12T12:35:46;7.25;;;4.90;;
25023;SDS011;13033;50.936;5.334;2022-11-12T12:38:19;8.80;;;5.03;;
25023;SDS011;13033;50.936;5.334;2022-11-12T12:44:04;8.07;;;5.57;;
25023;SDS011;13033;50.936;5.334;2022-11-12T12:46:42;8.48;;;5.60;;
25023;SDS011;13033;50.936;5.334;2022-11-12T12:49:13;6.10;;;3.78;;
25023;SDS011;13033;50.936;5.334;2022-11-12T12:51:42;7.55;;;3.83;;
25023;SDS011;13033;50.936;5.334;2022-11-12T13:03:02;9.27;;;2.90;;
25023;SDS011;13033;50.936;5.334;2022-11-12T13:05:34;18.42;;;3.50;;
25023;SDS011;13033;50.936;5.334;2022-11-12T13:08:03;13.38;;;3.03;;
25023;SDS011;13033;50.936;5.334;2022-11-12T13:15:43;2.97;;;2.47;;
25023;SDS011;13033;50.936;5.334;2022-11-12T13:18:11;6.95;;;2.72;;
25023;SDS011;13033;50.936;5.334;2022-11-12T13:21:08;3.67;;;2.38;;
25023;SDS011;13033;50.936;5.334;2022-11-12T13:36:55;12.60;;;2.67;;
25023;SDS011;13033;50.936;5.334;2022-11-12T13:39:25;4.32;;;2.10;;
25023;SDS011;13033;50.936;5.334;2022-11-12T13:41:57;4.60;;;2.30;;
25023;SDS011;13033;50.936;5.334;2022-11-12T13:44:42;4.57;;;2.35;;
25023;SDS011;13033;50.936;5.334;2022-11-12T13:47:16;8.20;;;2.65;;
25023;SDS011;13033;50.936;5.334;2022-11-12T13:49:45;5.07;;;2.50;;
25023;SDS011;13033;50.936;5.334;2022-11-12T13:52:13;4.22;;;2.63;;
25023;SDS011;13033;50.936;5.334;2022-11-12T13:54:40;3.92;;;2.70;;
25023;SDS011;13033;50.936;5.334;2022-11-12T13:57:23;4.88;;;2.40;;
25023;SDS011;13033;50.936;5.334;2022-11-12T14:00:07;3.60;;;2.42;;
25023;SDS011;13033;50.936;5.334;2022-11-12T14:02:56;3.75;;;2.40;;
25023;SDS011;13033;50.936;5.334;2022-11-12T14:05:27;6.40;;;2.55;;
25023;SDS011;13033;50.936;5.334;2022-11-12T14:13:42;4.78;;;2.80;;
25023;SDS011;13033;50.936;5.334;2022-11-12T14:24:38;3.28;;;2.30;;
25023;SDS011;13033;50.936;5.334;2022-11-12T14:27:31;11.13;;;3.28;;
25023;SDS011;13033;50.936;5.334;2022-11-12T14:32:35;3.90;;;2.35;;
25023;SDS011;13033;50.936;5.334;2022-11-12T14:37:51;4.97;;;2.50;;
25023;SDS011;13033;50.936;5.334;2022-11-12T14:40:42;5.10;;;2.60;;
25023;SDS011;13033;50.936;5.334;2022-11-12T14:46:05;4.53;;;2.58;;
25023;SDS011;13033;50.936;5.334;2022-11-12T14:48:45;3.90;;;2.20;;
25023;SDS011;13033;50.936;5.334;2022-11-12T14:51:13;4.18;;;2.55;;
25023;SDS011;13033;50.936;5.334;2022-11-12T14:53:41;7.78;;;4.13;;
25023;SDS011;13033;50.936;5.334;2022-11-12T14:56:12;5.07;;;2.85;;
25023;SDS011;13033;50.936;5.334;2022-11-12T14:58:52;4.65;;;2.88;;
25023;SDS011;13033;50.936;5.334;2022-11-12T15:01:21;4.68;;;2.22;;
25023;SDS011;13033;50.936;5.334;2022-11-12T15:04:02;3.70;;;2.30;;
25023;SDS011;13033;50.936;5.334;2022-11-12T15:06:54;5.75;;;3.15;;
25023;SDS011;13033;50.936;5.334;2022-11-12T15:09:34;3.90;;;2.53;;
25023;SDS011;13033;50.936;5.334;2022-11-12T15:12:02;8.05;;;2.67;;
25023;SDS011;13033;50.936;5.334;2022-11-12T15:14:31;34.15;;;4.78;;
25023;SDS011;13033;50.936;5.334;2022-11-12T15:16:58;10.23;;;2.83;;
25023;SDS011;13033;50.936;5.334;2022-11-12T15:19:27;17.73;;;3.03;;
25023;SDS011;13033;50.936;5.334;2022-11-12T15:21:57;12.32;;;3.42;;
25023;SDS011;13033;50.936;5.334;2022-11-12T15:24:29;17.08;;;3.58;;
25023;SDS011;13033;50.936;5.334;2022-11-12T15:26:57;47.77;;;5.30;;
25023;SDS011;13033;50.936;5.334;2022-11-12T15:29:31;20.40;;;4.72;;
25023;SDS011;13033;50.936;5.334;2022-11-12T15:37:24;13.85;;;3.70;;
25023;SDS011;13033;50.936;5.334;2022-11-12T15:39:52;13.40;;;3.63;;
25023;SDS011;13033;50.936;5.334;2022-11-12T15:42:27;14.18;;;3.83;;
25023;SDS011;13033;50.936;5.334;2022-11-12T15:45:01;10.52;;;3.85;;
25023;SDS011;13033;50.936;5.334;2022-11-12T15:47:28;6.72;;;3.47;;
25023;SDS011;13033;50.936;5.334;2022-11-12T15:49:57;9.23;;;4.50;;
25023;SDS011;13033;50.936;5.334;2022-11-12T15:52:23;9.35;;;4.05;;
25023;SDS011;13033;50.936;5.334;2022-11-12T15:54:49;9.40;;;4.55;;
25023;SDS011;13033;50.936;5.334;2022-11-12T15:57:22;11.45;;;4.53;;
25023;SDS011;13033;50.936;5.334;2022-11-12T15:59:56;6.45;;;4.10;;
25023;SDS011;13033;50.936;5.334;2022-11-12T16:02:29;9.88;;;4.65;;
25023;SDS011;13033;50.936;5.334;2022-11-12T16:04:55;9.55;;;4.28;;
25023;SDS011;13033;50.936;5.334;2022-11-12T16:07:21;8.30;;;4.00;;
25023;SDS011;13033;50.936;5.334;2022-11-12T16:09:46;7.70;;;4.15;;
25023;SDS011;13033;50.936;5.334;2022-11-12T16:12:12;6.82;;;4.07;;
25023;SDS011;13033;50.936;5.334;2022-11-12T16:14:39;7.93;;;4.38;;
25023;SDS011;13033;50.936;5.334;2022-11-12T16:17:07;6.72;;;4.68;;
25023;SDS011;13033;50.936;5.334;2022-11-12T16:19:39;13.75;;;4.85;;
25023;SDS011;13033;50.936;5.334;2022-11-12T16:22:05;9.13;;;5.13;;
25023;SDS011;13033;50.936;5.334;2022-11-12T16:24:37;9.90;;;5.28;;
25023;SDS011;13033;50.936;5.334;2022-11-12T16:27:06;9.20;;;5.80;;
25023;SDS011;13033;50.936;5.334;2022-11-12T16:29:34;14.32;;;5.28;;
25023;SDS011;13033;50.936;5.334;2022-11-12T16:32:01;9.73;;;5.05;;
25023;SDS011;13033;50.936;5.334;2022-11-12T16:34:27;9.82;;;5.45;;
25023;SDS011;13033;50.936;5.334;2022-11-12T16:36:53;9.50;;;5.50;;
25023;SDS011;13033;50.936;5.334;2022-11-12T16:39:19;10.88;;;5.45;;
25023;SDS011;13033;50.936;5.334;2022-11-12T16:41:45;13.07;;;6.70;;
25023;SDS011;13033;50.936;5.334;2022-11-12T16:44:10;11.43;;;6.38;;
25023;SDS011;13033;50.936;5.334;2022-11-12T16:46:37;19.95;;;6.88;;
25023;SDS011;13033;50.936;5.334;2022-11-12T16:49:04;11.88;;;6.85;;
25023;SDS011;13033;50.936;5.334;2022-11-12T16:51:30;14.55;;;6.85;;
25023;SDS011;13033;50.936;5.334;2022-11-12T16:53:56;12.23;;;7.47;;
25023;SDS011;13033;50.936;5.334;2022-11-12T16:56:22;14.27;;;7.53;;
25023;SDS011;13033;50.936;5.334;2022-11-12T16:58:48;13.65;;;7.43;;
25023;SDS011;13033;50.936;5.334;2022-11-12T17:01:19;14.27;;;7.22;;